Startpagina
METAR-TAF:

METAR-TAF

Vliegvelden :

Dubai International Airport

Dubai, Verenigde Arabische Emiraten

breedte: 25-15-10N, lengte: 055-21-52E, hoogte: 8 m

Actueel weer

Dit bericht is 1 uur en het 5 minuten geleden gemaakt, om 11:00 UTC
Wind 13 kt uit het noorden
Temperatuur 25°C
Vochtigheid 39%
Druk 1017 hPa
Zicht 10 km of meer
Weinig wolken op 4500 ft

METAR: OMDB 221100Z 01013KT 9999 FEW045 25/10 Q1017 NOSIG

Tijdstip: 16:05 (12:05 UTC)

Verwachting

Dit bericht is 1 uur en het 4 minuten geleden gemaakt, om 11:01 UTC
Verwachting geldig van 22 om 12 UTC tot 23 om 18 UTC
Wind 10 kt uit het noorden
Zicht 10 km of meer
geen wolken onder 1500 m en geen cumulonimbus
Wijzigt naar
van 22 om 15 UTC tot 22 om 17 UTC
Wind 5 kt uit het oosten
Wijzigt naar
van 23 om 09 UTC tot 23 om 11 UTC
Wind 10 kt uit het noorden
Wijzigt naar
van 23 om 15 UTC tot 23 om 17 UTC
Wind 5 kt uit het oostnoordoosten

TAF: OMDB 221101Z 2212/2318 36010KT CAVOK BECMG 2215/2217 08005KT BECMG 2309/2311 36010KT BECMG 2315/2317 07005KT

Waarnemingen en weersverwachtingen van meer dan 4000 vliegvelden (METAR en TAF).

De beschikbare stations zijn de gele en rode punten op de kaart.

Ga met uw muis naar het station om de naam te zien.

Klik dan om waarnemingen en weersverwachtingen te zien.

kaart wijzigen: klik op de groene knoppen met een zwart kruis om in te zoomen, op de groene knop met een streepje om uit te zoomen of op de groene pijlen voor aangrenzende kaarten.


METAR-TAF: